Accueil
METAR-TAF:

METAR-TAF

Aéroports :

Wunstorf, Allemagne

latitude: 52-27N, longitude: 009-26E, altitude: 57 m

Observation

Le bulletin a été fait il y a 1 heure et 7 minutes, à 10:20 UTC
Vent 5 kt de sud-ouest
Température 12°C
Humidité 44%
Pression 1025 hPa
Visibilité 10 km ou plus

METAR: ETNW 161020Z AUTO 22005KT 9999 // ////// 12/00 Q1025 ///

Heure: 12:27 (11:27 UTC)

Prévision

Le bulletin a été fait il y a 6 heures et 27 minutes, à 05:00 UTC
Prévision valable du 16 à 06 UTC au 17 à 06 UTC
Vent 5 kt de sud
Visibilité 10 km ou plus
Ciel clair
Evoluant progressivement
du 16 à 10 UTC au 16 à 12 UTC
Vent 7 kt de ouest/sud-ouest
Visibilité 10 km ou plus
Quelques nuages à une hauteur de 30000 ft

TAF: ETNW 160500Z 1606/1706 18005KT 9999 NSW SKC BECMG 1610/1612 25007KT 9999 NSW FEW300 CANCEL BY ETGL

Observations et prévisions météorologiques de plus de 4000 aéroports (messages METAR et TAF).

Les stations disponibles sont représentées par des disques jaunes et rouges sur la carte.

Passer la souris dessus pour voir le nom de la station.

Cliquer dessus pour voir les observations et prévisions météorologiques.

Pour changer de carte: cliquez sur les boutons verts avec une croix noire pour zoomer, sur le bouton vert avec un tiret pour effectuer un zoom arrière, ou sur les flèches vertes pour les cartes adjacentes.


METAR-TAF: